Time;durP1;ratioP1;P1;durP2;ratioP2;P2;SDS_P1;SDS_P2;PMS_P1;PMS_P2;Temp;Humidity;BMP_temperature;BMP_pressure;BME280_temperature;BME280_humidity;BME280_pressure;Samples;Min_cycle;Max_cycle;Signal;HPM_P1;HPM_P2
2023/08/19 00:00:26;;;;;;;;;;;;;;;;;;5064504;28;19933;-87
2023/08/19 00:02:52;;;;;;;;;;;;;;;;;;5060153;28;19959;-87
2023/08/19 00:05:18;;;;;;;;;;;;;;;;;;5063302;28;20498;-87
2023/08/19 00:07:44;;;;;;;;;;;;;;;;;;5065333;28;20018;-87
2023/08/19 00:10:10;;;;;;;;;;;;;;;;;;5065385;28;19928;-86
2023/08/19 00:12:36;;;;;;;;;;;;;;;;;;5062385;28;20300;-86
2023/08/19 00:15:02;;;;;;;;;;;;;;;;;;5052749;28;20495;-86
2023/08/19 00:17:28;;;;;;;;;;;;;;;;;;5066166;28;20027;-86
2023/08/19 00:19:54;;;;;;;;;;;;;;;;;;5063500;28;19967;-86
2023/08/19 00:22:20;;;;;;;;;;;;;;;;;;5046572;28;20023;-86
2023/08/19 00:24:46;;;;;;;;;;;;;;;;;;5062774;28;20380;-86
2023/08/19 00:27:12;;;;;;;;;;;;;;;;;;5064410;28;19928;-86
2023/08/19 00:29:38;;;;;;;;;;;;;;;;;;5062483;28;19928;-87
2023/08/19 00:32:04;;;;;;;;;;;;;;;;;;5063147;28;20387;-86
2023/08/19 00:34:29;;;;;;;;;;;;;;;;;;5065488;28;19978;-87
2023/08/19 00:36:55;;;;;;;;;;;;;;;;;;5058518;28;19929;-87
2023/08/19 00:39:21;;;;;;;;;;;;;;;;;;5058034;28;19974;-86
2023/08/19 00:41:53;;;;;;;;;;;;;;;;;;5062553;28;19968;-86
2023/08/19 00:44:19;;;;;;;;;;;;;;;;;;5062292;28;20011;-87
2023/08/19 00:46:48;;;;;;;;;;;;;;;;;;5062429;28;20019;-86
2023/08/19 00:49:14;;;;;;;;;;;;;;;;;;5062502;28;20126;-87
2023/08/19 00:51:40;;;;;;;;;;;;;;;;;;5060490;28;19939;-87
2023/08/19 00:54:05;;;;;;;;;;;;;;;;;;5060842;28;19928;-87
2023/08/19 00:56:31;;;;;;;;;;;;;;;;;;5062434;28;20066;-86
2023/08/19 00:58:57;;;;;;;;;;;;;;;;;;5046592;28;20009;-86
2023/08/19 01:01:23;;;;;;;;;;;;;;;;;;5063264;28;20288;-85
2023/08/19 01:03:49;;;;;;;;;;;;;;;;;;5045623;28;19924;-86
2023/08/19 01:06:15;;;;;;;;;;;;;;;;;;5044934;28;19928;-86
2023/08/19 01:08:41;;;;;;;;;;;;;;;;;;5061569;28;20238;-86
2023/08/19 01:11:07;;;;;;;;;;;;;;;;;;5043087;28;21236;-86
2023/08/19 01:13:33;;;;;;;;;;;;;;;;;;5064195;28;20013;-86
2023/08/19 01:15:59;;;;;;;;;;;;;;;;;;5065578;28;19932;-86
2023/08/19 01:18:25;;;;;;;;;;;;;;;;;;5061805;28;19928;-87
2023/08/19 01:20:50;;;;;;;;;;;;;;;;;;5040425;28;19935;-86
2023/08/19 01:23:16;;;;;;;;;;;;;;;;;;5044542;28;20018;-86
2023/08/19 01:25:42;;;;;;;;;;;;;;;;;;5061981;28;19924;-86
2023/08/19 01:28:08;;;;;;;;;;;;;;;;;;5061208;28;20294;-87
2023/08/19 01:30:34;;;;;;;;;;;;;;;;;;5047492;28;20455;-86
2023/08/19 01:33:03;;;;;;;;;;;;;;;;;;5059516;28;19982;-86
2023/08/19 01:35:29;;;;;;;;;;;;;;;;;;5061497;28;19928;-86
2023/08/19 01:37:55;;;;;;;;;;;;;;;;;;5061350;28;20303;-87
2023/08/19 01:40:22;;;;;;;;;;;;;;;;;;5063540;28;20067;-88
2023/08/19 01:42:48;;;;;;;;;;;;;;;;;;5045554;28;19931;-86
2023/08/19 01:45:13;;;;;;;;;;;;;;;;;;5063064;28;19928;-85
2023/08/19 01:47:39;;;;;;;;;;;;;;;;;;5065161;28;19930;-85
2023/08/19 01:50:05;;;;;;;;;;;;;;;;;;5062307;28;19951;-85
2023/08/19 01:52:31;;;;;;;;;;;;;;;;;;5063443;28;20024;-85
2023/08/19 01:54:57;;;;;;;;;;;;;;;;;;5062747;28;19929;-85
2023/08/19 01:57:27;;;;;;;;;;;;;;;;;;5063846;28;19929;-85
2023/08/19 01:59:54;;;;;;;;;;;;;;;;;;5045869;28;19971;-86
2023/08/19 02:02:20;;;;;;;;;;;;;;;;;;5065376;28;20410;-85
2023/08/19 02:04:46;;;;;;;;;;;;;;;;;;5061439;28;19929;-85
2023/08/19 02:07:12;;;;;;;;;;;;;;;;;;5062723;28;19936;-86
2023/08/19 02:09:38;;;;;;;;;;;;;;;;;;5043649;28;20451;-87
2023/08/19 02:12:04;;;;;;;;;;;;;;;;;;5060904;28;19981;-86
2023/08/19 02:14:30;;;;;;;;;;;;;;;;;;5041408;28;20453;-85
2023/08/19 02:16:55;;;;;;;;;;;;;;;;;;5061195;28;19929;-86
2023/08/19 02:19:21;;;;;;;;;;;;;;;;;;5043557;28;19951;-86
2023/08/19 02:21:47;;;;;;;;;;;;;;;;;;5067837;28;19928;-86
2023/08/19 02:24:13;;;;;;;;;;;;;;;;;;5047731;28;20223;-85
2023/08/19 02:26:39;;;;;;;;;;;;;;;;;;5063341;28;20462;-87
2023/08/19 02:29:05;;;;;;;;;;;;;;;;;;5064425;28;19929;-87
2023/08/19 02:31:31;;;;;;;;;;;;;;;;;;5063145;28;19928;-87
2023/08/19 02:33:57;;;;;;;;;;;;;;;;;;5066213;28;19986;-87
2023/08/19 02:36:23;;;;;;;;;;;;;;;;;;5062624;28;19933;-87
2023/08/19 02:38:49;;;;;;;;;;;;;;;;;;5060819;28;19934;-87
2023/08/19 02:41:18;;;;;;;;;;;;;;;;;;5043756;28;19968;-86
2023/08/19 02:43:44;;;;;;;;;;;;;;;;;;5061160;28;19936;-88
2023/08/19 02:46:10;;;;;;;;;;;;;;;;;;5043701;28;19928;-84
2023/08/19 02:48:35;;;;;;;;;;;;;;;;;;5062247;28;19989;-85
2023/08/19 02:51:01;;;;;;;;;;;;;;;;;;5058729;28;20372;-85
2023/08/19 02:53:28;;;;;;;;;;;;;;;;;;5061892;28;19942;-85
2023/08/19 02:55:54;;;;;;;;;;;;;;;;;;5049168;28;20812;-86
2023/08/19 02:58:20;;;;;;;;;;;;;;;;;;5067738;28;19928;-85
2023/08/19 03:00:49;;;;;;;;;;;;;;;;;;5047979;28;19932;-86
2023/08/19 03:03:15;;;;;;;;;;;;;;;;;;5065458;28;19986;-85
2023/08/19 03:05:41;;;;;;;;;;;;;;;;;;5065401;28;19932;-85
2023/08/19 03:08:07;;;;;;;;;;;;;;;;;;5064766;28;19924;-85
2023/08/19 03:10:33;;;;;;;;;;;;;;;;;;5065109;28;20343;-85
2023/08/19 03:12:59;;;;;;;;;;;;;;;;;;5061497;28;19929;-85
2023/08/19 03:15:25;;;;;;;;;;;;;;;;;;5054929;28;20318;-85
2023/08/19 03:17:51;;;;;;;;;;;;;;;;;;5050212;28;19978;-86
2023/08/19 03:20:16;;;;;;;;;;;;;;;;;;5066064;28;20033;-85
2023/08/19 03:22:42;;;;;;;;;;;;;;;;;;5065014;28;20417;-85
2023/08/19 03:25:08;;;;;;;;;;;;;;;;;;5064117;28;19928;-84
2023/08/19 03:27:34;;;;;;;;;;;;;;;;;;5063783;28;20394;-84
2023/08/19 03:30:00;;;;;;;;;;;;;;;;;;5065649;28;19933;-85
2023/08/19 03:32:26;;;;;;;;;;;;;;;;;;5066024;28;19935;-84
2023/08/19 03:34:52;;;;;;;;;;;;;;;;;;5066623;28;20249;-84
2023/08/19 03:37:18;;;;;;;;;;;;;;;;;;5046040;28;20299;-84
2023/08/19 03:39:44;;;;;;;;;;;;;;;;;;5046261;28;19936;-84
2023/08/19 03:42:10;;;;;;;;;;;;;;;;;;5061705;28;20226;-85
2023/08/19 03:44:36;;;;;;;;;;;;;;;;;;5066384;28;20350;-84
2023/08/19 03:47:02;;;;;;;;;;;;;;;;;;5066166;28;19975;-84
2023/08/19 03:49:28;;;;;;;;;;;;;;;;;;5074109;28;19920;-84
2023/08/19 03:51:54;;;;;;;;;;;;;;;;;;5067607;28;20380;-85
2023/08/19 03:54:20;;;;;;;;;;;;;;;;;;5065397;28;19931;-85
2023/08/19 03:56:46;;;;;;;;;;;;;;;;;;5047478;28;20314;-85
2023/08/19 03:59:12;;;;;;;;;;;;;;;;;;5067384;28;19974;-85
2023/08/19 04:01:37;;;;;;;;;;;;;;;;;;5066908;28;19928;-85
2023/08/19 04:04:03;;;;;;;;;;;;;;;;;;5066988;28;19964;-85
2023/08/19 04:06:29;;;;;;;;;;;;;;;;;;5069030;28;20772;-83
2023/08/19 04:08:55;;;;;;;;;;;;;;;;;;5066096;28;19935;-85
2023/08/19 04:11:21;;;;;;;;;;;;;;;;;;5066643;28;19968;-84
2023/08/19 04:13:47;;;;;;;;;;;;;;;;;;5049638;28;19928;-85
2023/08/19 04:16:13;;;;;;;;;;;;;;;;;;5066658;28;20015;-85
2023/08/19 04:18:39;;;;;;;;;;;;;;;;;;5050111;28;19928;-85
2023/08/19 04:21:09;;;;;;;;;;;;;;;;;;5067593;28;19928;-85
2023/08/19 04:23:35;;;;;;;;;;;;;;;;;;5062137;28;20474;-85
2023/08/19 04:26:01;;;;;;;;;;;;;;;;;;5046719;28;19931;-84
2023/08/19 04:28:26;;;;;;;;;;;;;;;;;;5062682;28;19928;-85
2023/08/19 04:30:53;;;;;;;;;;;;;;;;;;5048349;28;20024;-84
2023/08/19 04:33:19;;;;;;;;;;;;;;;;;;5050210;28;19928;-84
2023/08/19 04:35:45;;;;;;;;;;;;;;;;;;5062353;28;19935;-85
2023/08/19 04:38:11;;;;;;;;;;;;;;;;;;5063860;28;19940;-85
2023/08/19 04:40:36;;;;;;;;;;;;;;;;;;5062650;28;19929;-85
2023/08/19 04:43:02;;;;;;;;;;;;;;;;;;5063865;28;19924;-84
2023/08/19 04:45:28;;;;;;;;;;;;;;;;;;5063657;28;19967;-85
2023/08/19 04:47:54;;;;;;;;;;;;;;;;;;5048425;28;20007;-84
2023/08/19 04:50:21;;;;;;;;;;;;;;;;;;5046262;28;19932;-85
2023/08/19 04:52:47;;;;;;;;;;;;;;;;;;5047406;28;19924;-85
2023/08/19 04:55:14;;;;;;;;;;;;;;;;;;5062241;28;20015;-85
2023/08/19 04:57:40;;;;;;;;;;;;;;;;;;5062215;28;20295;-84
2023/08/19 05:00:08;;;;;;;;;;;;;;;;;;5060123;28;20041;-84
2023/08/19 05:02:34;;;;;;;;;;;;;;;;;;5057616;28;20404;-84
2023/08/19 05:05:00;;;;;;;;;;;;;;;;;;5059242;28;19928;-85
2023/08/19 05:07:26;;;;;;;;;;;;;;;;;;5063059;28;19968;-84
2023/08/19 05:09:52;;;;;;;;;;;;;;;;;;5064824;28;19928;-84
2023/08/19 05:12:17;;;;;;;;;;;;;;;;;;5062964;28;20015;-84
2023/08/19 05:14:44;;;;;;;;;;;;;;;;;;5049258;28;20484;-83
2023/08/19 05:17:09;;;;;;;;;;;;;;;;;;5047180;28;19929;-85
2023/08/19 05:19:36;;;;;;;;;;;;;;;;;;5062028;28;19929;-84
2023/08/19 05:22:02;;;;;;;;;;;;;;;;;;5061239;28;19928;-84
2023/08/19 05:24:28;;;;;;;;;;;;;;;;;;5046158;28;19928;-84
2023/08/19 05:26:57;;;;;;;;;;;;;;;;;;5063070;28;19968;-86
2023/08/19 05:29:24;;;;;;;;;;;;;;;;;;5063590;28;20014;-83
2023/08/19 05:31:49;;;;;;;;;;;;;;;;;;5044977;28;19935;-84
2023/08/19 05:34:15;;;;;;;;;;;;;;;;;;5060675;28;20622;-84
2023/08/19 05:36:41;;;;;;;;;;;;;;;;;;5064191;28;19928;-85
2023/08/19 05:39:07;;;;;;;;;;;;;;;;;;5047463;28;19990;-84
2023/08/19 05:41:33;;;;;;;;;;;;;;;;;;5061792;28;19929;-85
2023/08/19 05:43:59;;;;;;;;;;;;;;;;;;5061274;28;19946;-86
2023/08/19 05:46:25;;;;;;;;;;;;;;;;;;5061236;28;20208;-85
2023/08/19 05:48:51;;;;;;;;;;;;;;;;;;5041516;28;19959;-85
2023/08/19 05:51:17;;;;;;;;;;;;;;;;;;5062139;28;19928;-84
2023/08/19 05:53:43;;;;;;;;;;;;;;;;;;5063203;28;19968;-85
2023/08/19 05:56:09;;;;;;;;;;;;;;;;;;5064213;28;20017;-84
2023/08/19 05:58:35;;;;;;;;;;;;;;;;;;5063283;28;19932;-84
2023/08/19 06:01:03;;;;;;;;;;;;;;;;;;5043442;28;19925;-85
2023/08/19 06:03:29;;;;;;;;;;;;;;;;;;5061553;28;19928;-84
2023/08/19 06:05:54;;;;;;;;;;;;;;;;;;5045171;28;20421;-85
2023/08/19 06:08:20;;;;;;;;;;;;;;;;;;5061284;28;19928;-84
2023/08/19 06:10:46;;;;;;;;;;;;;;;;;;5060356;28;19924;-85
2023/08/19 06:13:15;;;;;;;;;;;;;;;;;;5052876;28;19929;-85
2023/08/19 06:15:41;;;;;;;;;;;;;;;;;;5060414;28;20384;-85
2023/08/19 06:18:07;;;;;;;;;;;;;;;;;;5063244;28;19928;-84
2023/08/19 06:20:33;;;;;;;;;;;;;;;;;;5062161;28;19932;-85
2023/08/19 06:22:59;;;;;;;;;;;;;;;;;;5060527;28;19932;-86
2023/08/19 06:25:25;;;;;;;;;;;;;;;;;;5043527;28;20001;-85
2023/08/19 06:27:51;;;;;;;;;;;;;;;;;;5060124;28;20011;-85
2023/08/19 06:30:16;;;;;;;;;;;;;;;;;;5066157;28;19924;-84
2023/08/19 06:32:42;;;;;;;;;;;;;;;;;;5064728;28;19928;-84
2023/08/19 06:35:08;;;;;;;;;;;;;;;;;;5048124;28;19925;-84
2023/08/19 06:37:34;;;;;;;;;;;;;;;;;;5065301;28;19932;-85
2023/08/19 06:40:00;;;;;;;;;;;;;;;;;;5062609;28;20457;-86
2023/08/19 06:42:26;;;;;;;;;;;;;;;;;;5045479;28;20006;-85
2023/08/19 06:44:52;;;;;;;;;;;;;;;;;;5060469;28;19929;-86
2023/08/19 06:47:18;;;;;;;;;;;;;;;;;;5061370;28;20004;-85
2023/08/19 06:49:47;;;;;;;;;;;;;;;;;;5064257;28;20014;-84
2023/08/19 06:52:13;;;;;;;;;;;;;;;;;;5064779;28;20427;-85
2023/08/19 06:54:39;;;;;;;;;;;;;;;;;;5072099;28;19932;-84
2023/08/19 06:57:05;;;;;;;;;;;;;;;;;;5066405;28;20014;-84
2023/08/19 06:59:30;;;;;;;;;;;;;;;;;;5062982;28;20303;-86
2023/08/19 07:01:56;;;;;;;;;;;;;;;;;;5063528;28;19928;-84
2023/08/19 07:04:22;;;;;;;;;;;;;;;;;;5062235;28;19939;-85
2023/08/19 07:06:48;;;;;;;;;;;;;;;;;;5062534;28;19950;-86
2023/08/19 07:09:14;;;;;;;;;;;;;;;;;;5063890;28;19986;-85
2023/08/19 07:11:40;;;;;;;;;;;;;;;;;;5068259;28;19924;-84
2023/08/19 07:14:06;;;;;;;;;;;;;;;;;;5064114;28;20118;-85
2023/08/19 07:16:40;;;;;;;;;;;;;;;;;;5048003;28;19936;-85
2023/08/19 07:19:06;;;;;;;;;;;;;;;;;;5064766;28;20019;-85
2023/08/19 07:21:32;;;;;;;;;;;;;;;;;;5047858;28;20043;-86
2023/08/19 07:24:01;;;;;;;;;;;;;;;;;;5065860;28;19971;-86
2023/08/19 07:26:27;;;;;;;;;;;;;;;;;;5066015;28;20383;-86
2023/08/19 07:28:52;;;;;;;;;;;;;;;;;;5067062;28;19935;-86
2023/08/19 07:31:18;;;;;;;;;;;;;;;;;;5064619;28;19936;-86
2023/08/19 07:33:44;;;;;;;;;;;;;;;;;;5060430;28;20011;-86
2023/08/19 07:36:10;;;;;;;;;;;;;;;;;;5043215;28;19929;-87
2023/08/19 07:38:36;;;;;;;;;;;;;;;;;;5063061;28;20649;-85
2023/08/19 07:41:03;;;;;;;;;;;;;;;;;;5062649;28;19935;-87
2023/08/19 07:43:29;;;;;;;;;;;;;;;;;;5065769;28;19932;-84
2023/08/19 07:45:55;;;;;;;;;;;;;;;;;;5063823;28;20413;-87
2023/08/19 07:48:21;;;;;;;;;;;;;;;;;;5066741;28;19936;-86
2023/08/19 07:50:47;;;;;;;;;;;;;;;;;;5064570;28;19936;-86
2023/08/19 07:53:13;;;;;;;;;;;;;;;;;;5067372;28;19928;-85
2023/08/19 07:55:39;;;;;;;;;;;;;;;;;;5048875;28;19924;-85
2023/08/19 07:58:05;;;;;;;;;;;;;;;;;;5059228;28;20277;-86
2023/08/19 08:00:30;;;;;;;;;;;;;;;;;;5059462;28;20308;-86
2023/08/19 08:02:56;;;;;;;;;;;;;;;;;;5065124;28;19928;-86
2023/08/19 08:05:23;;;;;;;;;;;;;;;;;;5059628;28;19932;-86
2023/08/19 08:07:49;;;;;;;;;;;;;;;;;;5062629;28;19931;-86
2023/08/19 08:10:15;;;;;;;;;;;;;;;;;;5066144;28;19928;-85
2023/08/19 08:12:41;;;;;;;;;;;;;;;;;;5064281;28;19928;-85
2023/08/19 08:15:07;;;;;;;;;;;;;;;;;;5064122;28;20446;-86
2023/08/19 08:17:33;;;;;;;;;;;;;;;;;;5062437;28;19928;-85
2023/08/19 08:19:59;;;;;;;;;;;;;;;;;;5061126;28;19974;-86
2023/08/19 08:22:25;;;;;;;;;;;;;;;;;;5063562;28;19924;-86
2023/08/19 08:24:51;;;;;;;;;;;;;;;;;;5061780;28;19936;-85
2023/08/19 08:27:17;;;;;;;;;;;;;;;;;;5061996;28;19951;-86
2023/08/19 08:29:43;;;;;;;;;;;;;;;;;;5065990;28;19928;-85
2023/08/19 08:32:09;;;;;;;;;;;;;;;;;;5064389;28;19972;-86
2023/08/19 08:34:36;;;;;;;;;;;;;;;;;;5066546;28;20465;-85
2023/08/19 08:37:02;;;;;;;;;;;;;;;;;;5047400;28;20372;-85
2023/08/19 08:39:28;;;;;;;;;;;;;;;;;;5062214;28;19935;-86
2023/08/19 08:41:54;;;;;;;;;;;;;;;;;;5064043;28;20370;-85
2023/08/19 08:44:20;;;;;;;;;;;;;;;;;;5062100;28;19925;-85
2023/08/19 08:46:46;;;;;;;;;;;;;;;;;;5062606;28;20039;-86
2023/08/19 08:49:12;;;;;;;;;;;;;;;;;;5064589;28;19928;-85
2023/08/19 08:51:38;;;;;;;;;;;;;;;;;;5063827;28;20367;-86
2023/08/19 08:54:04;;;;;;;;;;;;;;;;;;5063337;28;20358;-85
2023/08/19 08:56:30;;;;;;;;;;;;;;;;;;5059239;28;20464;-87
2023/08/19 08:58:56;;;;;;;;;;;;;;;;;;5061062;28;19928;-86
2023/08/19 09:01:24;;;;;;;;;;;;;;;;;;5064512;28;19948;-84
2023/08/19 09:03:50;;;;;;;;;;;;;;;;;;5059755;28;19928;-86
2023/08/19 09:06:16;;;;;;;;;;;;;;;;;;5061612;28;19935;-86
2023/08/19 09:08:43;;;;;;;;;;;;;;;;;;5043301;28;20430;-85
2023/08/19 09:11:08;;;;;;;;;;;;;;;;;;5045098;28;19943;-85
2023/08/19 09:13:34;;;;;;;;;;;;;;;;;;5060018;28;19939;-85
2023/08/19 09:16:00;;;;;;;;;;;;;;;;;;5060840;28;19928;-85
2023/08/19 09:18:26;;;;;;;;;;;;;;;;;;5058169;28;20297;-85
2023/08/19 09:20:52;;;;;;;;;;;;;;;;;;5058160;28;19983;-87
2023/08/19 09:23:25;;;;;;;;;;;;;;;;;;5056370;28;19928;-86
2023/08/19 09:25:50;;;;;;;;;;;;;;;;;;5052538;28;19928;-85
2023/08/19 09:28:17;;;;;;;;;;;;;;;;;;5061875;28;20358;-85
2023/08/19 09:30:43;;;;;;;;;;;;;;;;;;5070479;28;20011;-86
2023/08/19 09:33:09;;;;;;;;;;;;;;;;;;5067703;28;20004;-85
2023/08/19 09:35:38;;;;;;;;;;;;;;;;;;5060368;28;20291;-86
2023/08/19 09:38:04;;;;;;;;;;;;;;;;;;5060599;28;19928;-86
2023/08/19 09:40:30;;;;;;;;;;;;;;;;;;5065467;28;19947;-86
2023/08/19 09:42:56;;;;;;;;;;;;;;;;;;5057721;28;19936;-85
2023/08/19 09:45:23;;;;;;;;;;;;;;;;;;5066366;28;20415;-85
2023/08/19 09:47:51;;;;;;;;;;;;;;;;;;5062562;28;19924;-85
2023/08/19 09:50:17;;;;;;;;;;;;;;;;;;5062946;28;19931;-86
2023/08/19 09:52:43;;;;;;;;;;;;;;;;;;5063074;28;20361;-84
2023/08/19 09:55:09;;;;;;;;;;;;;;;;;;5043186;28;19932;-86
2023/08/19 09:57:35;;;;;;;;;;;;;;;;;;5060229;28;19928;-83
2023/08/19 10:00:01;;;;;;;;;;;;;;;;;;5061907;28;19928;-84
2023/08/19 10:02:27;;;;;;;;;;;;;;;;;;5059762;28;20272;-85
2023/08/19 10:04:53;;;;;;;;;;;;;;;;;;5054551;28;19932;-84
2023/08/19 10:07:19;;;;;;;;;;;;;;;;;;5055810;28;20029;-84
2023/08/19 10:09:45;;;;;;;;;;;;;;;;;;5062310;28;19932;-84
2023/08/19 10:12:11;;;;;;;;;;;;;;;;;;5043961;28;20327;-85
2023/08/19 10:14:37;;;;;;;;;;;;;;;;;;5059658;28;19928;-84
2023/08/19 10:17:04;;;;;;;;;;;;;;;;;;5058180;28;20280;-83
2023/08/19 10:19:30;;;;;;;;;;;;;;;;;;5058157;28;19994;-84
2023/08/19 10:21:56;;;;;;;;;;;;;;;;;;5059527;28;20427;-84
2023/08/19 10:24:22;;;;;;;;;;;;;;;;;;5054281;28;19932;-84
2023/08/19 10:26:48;;;;;;;;;;;;;;;;;;5060141;28;19932;-85
2023/08/19 10:29:14;;;;;;;;;;;;;;;;;;5062450;28;19932;-86
2023/08/19 10:31:42;;;;;;;;;;;;;;;;;;5061634;28;20521;-85
2023/08/19 10:34:09;;;;;;;;;;;;;;;;;;5056356;28;19929;-86
2023/08/19 10:36:35;;;;;;;;;;;;;;;;;;5058292;28;20304;-86
2023/08/19 10:39:00;;;;;;;;;;;;;;;;;;5061564;28;20406;-86
2023/08/19 10:41:27;;;;;;;;;;;;;;;;;;5057001;28;19932;-87
2023/08/19 10:43:54;;;;;;;;;;;;;;;;;;5057879;28;21312;-89
2023/08/19 10:49:24;;;;;;;;;;;;;;;;;;5058257;28;19923;-85
2023/08/19 10:51:53;;;;;;;;;;;;;;;;;;5037731;28;19928;-85
2023/08/19 10:54:22;;;;;;;;;;;;;;;;;;5033398;28;19928;-85
2023/08/19 10:56:48;;;;;;;;;;;;;;;;;;5040447;28;20416;-84
2023/08/19 10:59:14;;;;;;;;;;;;;;;;;;5055318;28;19928;-85
2023/08/19 11:01:40;;;;;;;;;;;;;;;;;;5052482;28;19962;-86
2023/08/19 11:04:07;;;;;;;;;;;;;;;;;;5058140;28;19931;-86
2023/08/19 11:06:33;;;;;;;;;;;;;;;;;;5040291;28;19972;-85
2023/08/19 11:08:59;;;;;;;;;;;;;;;;;;5039829;28;20457;-88
2023/08/19 11:11:25;;;;;;;;;;;;;;;;;;5039326;28;19932;-85
2023/08/19 11:13:51;;;;;;;;;;;;;;;;;;5058120;28;19943;-89
2023/08/19 11:16:17;;;;;;;;;;;;;;;;;;5045764;28;20537;-91
2023/08/19 11:18:43;;;;;;;;;;;;;;;;;;5060363;28;20350;-87
2023/08/19 11:21:09;;;;;;;;;;;;;;;;;;5060133;28;20002;-88
2023/08/19 11:23:38;;;;;;;;;;;;;;;;;;5058833;28;19932;-86
2023/08/19 11:26:07;;;;;;;;;;;;;;;;;;5059864;28;20589;-87
2023/08/19 11:28:33;;;;;;;;;;;;;;;;;;5056384;28;19924;-88
2023/08/19 11:30:59;;;;;;;;;;;;;;;;;;5039917;28;19929;-88
2023/08/19 11:33:26;;;;;;;;;;;;;;;;;;5057502;28;20007;-88
2023/08/19 11:35:52;;;;;;;;;;;;;;;;;;5056682;28;19963;-88
2023/08/19 11:38:18;;;;;;;;;;;;;;;;;;5059519;28;19928;-87
2023/08/19 11:40:44;;;;;;;;;;;;;;;;;;5044276;28;19935;-86
2023/08/19 11:43:10;;;;;;;;;;;;;;;;;;5040677;28;19929;-87
2023/08/19 11:45:37;;;;;;;;;;;;;;;;;;5062160;28;19929;-86
2023/08/19 11:48:03;;;;;;;;;;;;;;;;;;5043140;28;19995;-87
2023/08/19 11:50:34;;;;;;;;;;;;;;;;;;5045798;28;19928;-86
2023/08/19 11:53:00;;;;;;;;;;;;;;;;;;5060389;28;19925;-86
2023/08/19 11:55:26;;;;;;;;;;;;;;;;;;5062823;28;19939;-86
2023/08/19 11:57:52;;;;;;;;;;;;;;;;;;5058783;28;20005;-85
2023/08/19 12:00:18;;;;;;;;;;;;;;;;;;5059648;28;20293;-86
2023/08/19 12:02:44;;;;;;;;;;;;;;;;;;5063604;28;19986;-85
2023/08/19 12:05:10;;;;;;;;;;;;;;;;;;5059726;28;19932;-86
2023/08/19 12:07:36;;;;;;;;;;;;;;;;;;5058631;28;19932;-87
2023/08/19 12:10:03;;;;;;;;;;;;;;;;;;5060779;28;20303;-85
2023/08/19 12:12:29;;;;;;;;;;;;;;;;;;5061560;28;19954;-86
2023/08/19 12:14:59;;;;;;;;;;;;;;;;;;5053939;28;19928;-88
2023/08/19 12:17:24;;;;;;;;;;;;;;;;;;5054513;28;21006;-86
2023/08/19 12:19:50;;;;;;;;;;;;;;;;;;5054748;28;20509;-86
2023/08/19 12:22:16;;;;;;;;;;;;;;;;;;5056302;28;19967;-87
2023/08/19 12:24:42;;;;;;;;;;;;;;;;;;5052664;28;19990;-86
2023/08/19 12:27:08;;;;;;;;;;;;;;;;;;5052445;28;19925;-86
2023/08/19 12:29:35;;;;;;;;;;;;;;;;;;5053661;28;20410;-86
2023/08/19 12:32:00;;;;;;;;;;;;;;;;;;5037679;28;19938;-86
2023/08/19 12:34:27;;;;;;;;;;;;;;;;;;5053338;28;19933;-86
2023/08/19 12:36:53;;;;;;;;;;;;;;;;;;5037970;28;19960;-87
2023/08/19 12:39:19;;;;;;;;;;;;;;;;;;5037449;28;19926;-87
2023/08/19 12:41:47;;;;;;;;;;;;;;;;;;5038136;28;19935;-86
2023/08/19 12:44:13;;;;;;;;;;;;;;;;;;5035681;28;19932;-87
2023/08/19 12:46:39;;;;;;;;;;;;;;;;;;5038437;28;20275;-88
2023/08/19 12:49:05;;;;;;;;;;;;;;;;;;5037457;28;19928;-87
2023/08/19 12:51:31;;;;;;;;;;;;;;;;;;5052258;28;19932;-86
2023/08/19 12:53:57;;;;;;;;;;;;;;;;;;5038097;28;19925;-86
2023/08/19 12:56:23;;;;;;;;;;;;;;;;;;5055974;28;19936;-88
2023/08/19 12:58:49;;;;;;;;;;;;;;;;;;5055897;28;20431;-87
2023/08/19 13:01:15;;;;;;;;;;;;;;;;;;5036877;28;20424;-86
2023/08/19 13:03:41;;;;;;;;;;;;;;;;;;5053305;28;20055;-86
2023/08/19 13:06:07;;;;;;;;;;;;;;;;;;5055536;28;19973;-86
2023/08/19 13:08:33;;;;;;;;;;;;;;;;;;5055762;28;19928;-87
2023/08/19 13:10:59;;;;;;;;;;;;;;;;;;5043310;28;19954;-87
2023/08/19 13:13:24;;;;;;;;;;;;;;;;;;5057591;28;19938;-86
2023/08/19 13:15:50;;;;;;;;;;;;;;;;;;5059329;28;19935;-86
2023/08/19 13:18:18;;;;;;;;;;;;;;;;;;5038695;28;19928;-86
2023/08/19 13:20:45;;;;;;;;;;;;;;;;;;5057749;28;20408;-85
2023/08/19 13:23:10;;;;;;;;;;;;;;;;;;5060601;28;20389;-86
2023/08/19 13:25:36;;;;;;;;;;;;;;;;;;5036164;28;20019;-87
2023/08/19 13:28:02;;;;;;;;;;;;;;;;;;5051105;28;19935;-86
2023/08/19 13:30:28;;;;;;;;;;;;;;;;;;5047067;28;20082;-87
2023/08/19 13:32:54;;;;;;;;;;;;;;;;;;5048066;28;20384;-86
2023/08/19 13:35:21;;;;;;;;;;;;;;;;;;5052309;28;19933;-88
2023/08/19 13:37:47;;;;;;;;;;;;;;;;;;5033803;28;19933;-88
2023/08/19 13:40:13;;;;;;;;;;;;;;;;;;5049313;28;19935;-86
2023/08/19 13:42:39;;;;;;;;;;;;;;;;;;5049868;28;19928;-88
2023/08/19 13:45:07;;;;;;;;;;;;;;;;;;5054578;28;19935;-88
2023/08/19 13:47:32;;;;;;;;;;;;;;;;;;5041928;28;19963;-88
2023/08/19 13:49:58;;;;;;;;;;;;;;;;;;5053547;28;19959;-86
2023/08/19 13:52:24;;;;;;;;;;;;;;;;;;5040978;28;19987;-87
2023/08/19 13:54:50;;;;;;;;;;;;;;;;;;5054680;28;19964;-88
2023/08/19 13:57:16;;;;;;;;;;;;;;;;;;5037297;28;20478;-88
2023/08/19 13:59:42;;;;;;;;;;;;;;;;;;5042467;28;19928;-89
2023/08/19 14:02:08;;;;;;;;;;;;;;;;;;5055385;28;20303;-88
2023/08/19 14:04:34;;;;;;;;;;;;;;;;;;5039348;28;19963;-88
2023/08/19 14:07:00;;;;;;;;;;;;;;;;;;5057818;28;19932;-88
2023/08/19 14:09:26;;;;;;;;;;;;;;;;;;5039783;28;19928;-88
2023/08/19 14:11:52;;;;;;;;;;;;;;;;;;5040021;28;19935;-87
2023/08/19 14:14:18;;;;;;;;;;;;;;;;;;5056455;28;19928;-87
2023/08/19 14:16:44;;;;;;;;;;;;;;;;;;5059764;28;19928;-87
2023/08/19 14:19:11;;;;;;;;;;;;;;;;;;5056917;28;19928;-87
2023/08/19 14:21:37;;;;;;;;;;;;;;;;;;5060057;28;19924;-88
2023/08/19 14:24:03;;;;;;;;;;;;;;;;;;5059013;28;19982;-88
2023/08/19 14:26:30;;;;;;;;;;;;;;;;;;5039312;28;20063;-87
2023/08/19 14:28:56;;;;;;;;;;;;;;;;;;5057486;28;19928;-87
2023/08/19 14:31:22;;;;;;;;;;;;;;;;;;5039618;28;19989;-87
2023/08/19 14:33:49;;;;;;;;;;;;;;;;;;5055368;28;20113;-87
2023/08/19 14:36:15;;;;;;;;;;;;;;;;;;5053870;28;20377;-87
2023/08/19 14:38:41;;;;;;;;;;;;;;;;;;5056260;28;19932;-90
2023/08/19 14:41:09;;;;;;;;;;;;;;;;;;5038513;28;19981;-88
2023/08/19 14:43:35;;;;;;;;;;;;;;;;;;5054839;28;19932;-88
2023/08/19 14:46:01;;;;;;;;;;;;;;;;;;5056968;28;19989;-86
2023/08/19 14:48:27;;;;;;;;;;;;;;;;;;5059679;28;19981;-88
2023/08/19 14:50:53;;;;;;;;;;;;;;;;;;5063264;28;19917;-88
2023/08/19 14:53:19;;;;;;;;;;;;;;;;;;5063207;28;19998;-89
2023/08/19 14:55:45;;;;;;;;;;;;;;;;;;5044972;28;19932;-88
2023/08/19 14:58:11;;;;;;;;;;;;;;;;;;5062811;28;19990;-89
2023/08/19 15:00:37;;;;;;;;;;;;;;;;;;5046553;28;19939;-88
2023/08/19 15:03:03;;;;;;;;;;;;;;;;;;5062551;28;19924;-87
2023/08/19 15:05:30;;;;;;;;;;;;;;;;;;5050389;28;19929;-87
2023/08/19 15:07:57;;;;;;;;;;;;;;;;;;5054436;28;19937;-89
2023/08/19 15:10:23;;;;;;;;;;;;;;;;;;5066962;28;20408;-88
2023/08/19 15:12:49;;;;;;;;;;;;;;;;;;5062463;28;19924;-88
2023/08/19 15:15:17;;;;;;;;;;;;;;;;;;5065144;28;19929;-88
2023/08/19 15:17:43;;;;;;;;;;;;;;;;;;5062429;28;19951;-87
2023/08/19 15:20:09;;;;;;;;;;;;;;;;;;5066067;28;20605;-89
2023/08/19 15:22:35;;;;;;;;;;;;;;;;;;5063703;28;19924;-89
2023/08/19 15:25:01;;;;;;;;;;;;;;;;;;5042348;28;20299;-87
2023/08/19 15:27:27;;;;;;;;;;;;;;;;;;5062878;28;19921;-89
2023/08/19 15:29:53;;;;;;;;;;;;;;;;;;5046691;28;19935;-88
2023/08/19 15:32:19;;;;;;;;;;;;;;;;;;5058943;28;19969;-88
2023/08/19 15:34:45;;;;;;;;;;;;;;;;;;5042694;28;20461;-88
2023/08/19 15:37:14;;;;;;;;;;;;;;;;;;5062649;28;19925;-88
2023/08/19 15:39:40;;;;;;;;;;;;;;;;;;5057086;28;19929;-89
2023/08/19 15:42:06;;;;;;;;;;;;;;;;;;5043169;28;19928;-89
2023/08/19 15:44:32;;;;;;;;;;;;;;;;;;5075950;28;19928;-88
2023/08/19 15:46:58;;;;;;;;;;;;;;;;;;5067300;28;20457;-88
2023/08/19 15:49:24;;;;;;;;;;;;;;;;;;5056556;28;19928;-88
2023/08/19 15:51:50;;;;;;;;;;;;;;;;;;5062399;28;20310;-87
2023/08/19 15:54:16;;;;;;;;;;;;;;;;;;5045085;28;19924;-87
2023/08/19 15:56:42;;;;;;;;;;;;;;;;;;5061626;28;19965;-88
2023/08/19 15:59:08;;;;;;;;;;;;;;;;;;5061471;28;20424;-89
2023/08/19 16:01:35;;;;;;;;;;;;;;;;;;5061441;28;19939;-88
2023/08/19 16:04:01;;;;;;;;;;;;;;;;;;5042472;28;19973;-87
2023/08/19 16:06:27;;;;;;;;;;;;;;;;;;5047080;28;20303;-88
2023/08/19 16:08:53;;;;;;;;;;;;;;;;;;5058340;28;19932;-89
2023/08/19 16:11:19;;;;;;;;;;;;;;;;;;5060303;28;19928;-87
2023/08/19 16:13:45;;;;;;;;;;;;;;;;;;5056796;28;19959;-88
2023/08/19 16:16:11;;;;;;;;;;;;;;;;;;5043625;28;19924;-89
2023/08/19 16:18:40;;;;;;;;;;;;;;;;;;5060570;28;20415;-86
2023/08/19 16:21:06;;;;;;;;;;;;;;;;;;5058299;28;19998;-88
2023/08/19 16:23:33;;;;;;;;;;;;;;;;;;5066546;28;20035;-87
2023/08/19 16:25:59;;;;;;;;;;;;;;;;;;5040288;28;19928;-87
2023/08/19 16:28:25;;;;;;;;;;;;;;;;;;5056968;28;19932;-87
2023/08/19 16:30:52;;;;;;;;;;;;;;;;;;5059500;28;19939;-88
2023/08/19 16:33:18;;;;;;;;;;;;;;;;;;5055467;28;19977;-87
2023/08/19 16:35:46;;;;;;;;;;;;;;;;;;5055794;28;19924;-88
2023/08/19 16:38:12;;;;;;;;;;;;;;;;;;5056915;28;20289;-87
2023/08/19 16:40:39;;;;;;;;;;;;;;;;;;5059970;28;20287;-86